createdAt,value
2018-07-16T00:00:20.268Z,24.24
2018-07-16T00:00:51.444Z,24.24
2018-07-16T00:01:22.661Z,24.23
2018-07-16T00:01:53.894Z,24.23
2018-07-16T00:02:25.082Z,24.22
2018-07-16T00:02:56.270Z,24.21
2018-07-16T00:03:27.455Z,24.20
2018-07-16T00:03:58.628Z,24.20
2018-07-16T00:04:29.796Z,24.21
2018-07-16T00:05:01.037Z,24.22
2018-07-16T00:05:32.225Z,24.22
2018-07-16T00:06:03.407Z,24.22
2018-07-16T00:06:34.673Z,24.25
2018-07-16T00:07:05.910Z,24.25
2018-07-16T00:07:37.093Z,24.24
2018-07-16T00:08:08.316Z,24.25
2018-07-16T00:08:39.557Z,24.26
2018-07-16T00:09:10.802Z,24.26
2018-07-16T00:09:41.985Z,24.27
2018-07-16T00:10:13.208Z,24.28
2018-07-16T00:10:44.396Z,24.30
2018-07-16T00:11:15.672Z,24.31
2018-07-16T00:11:46.864Z,24.33
2018-07-16T00:12:18.049Z,24.37
2018-07-16T00:12:49.224Z,24.36
2018-07-16T00:13:20.492Z,24.40
2018-07-16T00:13:51.676Z,24.40
2018-07-16T00:14:22.897Z,24.40
2018-07-16T00:14:54.131Z,24.39
2018-07-16T00:15:25.320Z,24.40
2018-07-16T00:15:56.558Z,24.42
2018-07-16T00:16:27.739Z,24.44
2018-07-16T00:16:58.923Z,24.44
2018-07-16T00:17:30.149Z,24.44
2018-07-16T00:18:01.381Z,24.40
2018-07-16T00:18:32.604Z,24.39
2018-07-16T00:19:03.788Z,24.33
2018-07-16T00:19:34.961Z,24.35
2018-07-16T00:20:06.132Z,24.34
2018-07-16T00:20:37.305Z,24.31
2018-07-16T00:21:08.472Z,24.31
2018-07-16T00:21:39.654Z,24.30
2018-07-16T00:22:10.941Z,24.31
2018-07-16T00:22:42.115Z,24.29
2018-07-16T00:23:13.310Z,24.28
2018-07-16T00:23:44.542Z,24.29
2018-07-16T00:24:15.720Z,24.31
2018-07-16T00:24:46.952Z,24.30
2018-07-16T00:25:18.185Z,24.30
2018-07-16T00:25:49.375Z,24.31
2018-07-16T00:26:20.552Z,24.31
2018-07-16T00:26:51.761Z,24.28
2018-07-16T00:27:22.988Z,24.28
2018-07-16T00:27:54.172Z,24.30
2018-07-16T00:28:25.352Z,24.30
2018-07-16T00:28:56.590Z,24.34
2018-07-16T00:29:27.822Z,24.33
2018-07-16T00:29:59.046Z,24.35
2018-07-16T00:30:30.228Z,24.38
2018-07-16T00:31:01.400Z,24.40
2018-07-16T00:31:32.586Z,24.41
2018-07-16T00:32:03.812Z,24.46
2018-07-16T00:32:34.989Z,24.47
2018-07-16T00:33:06.222Z,24.49
2018-07-16T00:33:37.414Z,24.49
2018-07-16T00:34:09.589Z,24.50
2018-07-16T00:34:41.580Z,24.51
2018-07-16T00:35:12.844Z,24.51
2018-07-16T00:35:44.035Z,24.47
2018-07-16T00:36:15.225Z,24.50
2018-07-16T00:36:46.406Z,24.47
2018-07-16T00:37:17.670Z,24.48
2018-07-16T00:37:48.870Z,24.46
2018-07-16T00:38:20.105Z,24.46
2018-07-16T00:38:51.309Z,24.46
2018-07-16T00:39:22.568Z,24.43
2018-07-16T00:39:53.831Z,24.40
2018-07-16T00:40:25.061Z,24.38
2018-07-16T00:40:56.282Z,24.38
2018-07-16T00:41:27.452Z,24.37
2018-07-16T00:41:58.697Z,24.35
2018-07-16T00:42:29.949Z,24.37
2018-07-16T00:43:01.141Z,24.39
2018-07-16T00:43:32.369Z,24.37
2018-07-16T00:44:03.563Z,24.37
2018-07-16T00:44:34.749Z,24.37
2018-07-16T00:45:05.965Z,24.36
2018-07-16T00:45:37.160Z,24.35
2018-07-16T00:46:08.377Z,24.35
2018-07-16T00:46:39.821Z,24.37
2018-07-16T00:47:11.006Z,24.38
2018-07-16T00:47:42.184Z,24.39
2018-07-16T00:48:13.395Z,24.42
2018-07-16T00:48:44.665Z,24.43
2018-07-16T00:49:15.854Z,24.46
2018-07-16T00:49:47.079Z,24.50
2018-07-16T00:50:18.295Z,24.50
2018-07-16T00:50:49.480Z,24.50
2018-07-16T00:51:20.659Z,24.48
2018-07-16T00:51:52.426Z,24.47
2018-07-16T00:52:23.653Z,24.46
2018-07-16T00:52:54.913Z,24.47
2018-07-16T00:53:26.129Z,24.46
2018-07-16T00:53:58.182Z,24.45
2018-07-16T00:54:30.585Z,24.42
2018-07-16T00:55:02.175Z,24.38
2018-07-16T00:55:33.364Z,24.36
2018-07-16T00:56:04.557Z,24.36
2018-07-16T00:56:35.800Z,24.36
2018-07-16T00:57:06.974Z,24.36
2018-07-16T00:57:38.196Z,24.35
2018-07-16T00:58:09.979Z,24.34
2018-07-16T00:58:41.268Z,24.34
2018-07-16T00:59:12.452Z,24.34
2018-07-16T00:59:43.629Z,24.34
2018-07-16T01:00:14.866Z,24.37
2018-07-16T01:00:47.952Z,24.38
2018-07-16T01:02:20.849Z,24.34
2018-07-16T01:02:52.100Z,24.32
2018-07-16T01:03:24.147Z,24.31
2018-07-16T01:03:55.384Z,24.31
2018-07-16T01:04:29.950Z,24.31
2018-07-16T01:05:01.186Z,24.30
2018-07-16T01:05:32.391Z,24.32
2018-07-16T01:06:03.645Z,22.63
2018-07-16T01:06:35.629Z,24.32
2018-07-16T01:07:06.864Z,24.33
2018-07-16T01:07:39.163Z,24.36
2018-07-16T01:08:10.340Z,24.38
2018-07-16T01:08:41.516Z,24.39
2018-07-16T01:09:12.741Z,24.41
2018-07-16T01:09:43.944Z,24.42
2018-07-16T01:10:15.145Z,24.38
2018-07-16T01:10:46.390Z,24.38
2018-07-16T01:11:18.208Z,24.37
2018-07-16T01:11:49.436Z,24.39
2018-07-16T01:12:20.693Z,24.36
2018-07-16T01:12:51.875Z,24.32
2018-07-16T01:13:23.132Z,24.29
2018-07-16T01:13:54.368Z,24.26
2018-07-16T01:14:25.578Z,24.24
2018-07-16T01:14:57.506Z,24.22
2018-07-16T01:15:29.240Z,24.19
2018-07-16T01:16:01.037Z,24.18
2018-07-16T01:16:32.216Z,24.16
2018-07-16T01:17:03.442Z,24.14
2018-07-16T01:17:34.653Z,24.11
2018-07-16T01:18:05.857Z,24.09
2018-07-16T01:18:37.041Z,24.12
2018-07-16T01:19:08.329Z,24.10
2018-07-16T01:19:39.580Z,24.10
2018-07-16T01:20:10.772Z,24.11
2018-07-16T01:20:42.040Z,24.10
2018-07-16T01:21:13.232Z,24.10
2018-07-16T01:21:44.740Z,24.10
2018-07-16T01:22:16.018Z,24.09
2018-07-16T01:22:47.266Z,24.10
2018-07-16T01:23:18.480Z,24.11
2018-07-16T01:23:49.729Z,24.13
2018-07-16T01:24:20.979Z,24.13
2018-07-16T01:24:52.176Z,24.13
2018-07-16T01:25:24.507Z,24.18
2018-07-16T01:25:55.686Z,24.21
2018-07-16T01:26:26.892Z,24.22
2018-07-16T01:26:58.165Z,24.23
2018-07-16T01:27:29.380Z,24.22
2018-07-16T01:28:00.616Z,24.23
2018-07-16T01:28:32.809Z,24.22
2018-07-16T01:29:10.333Z,24.18
2018-07-16T01:29:42.581Z,24.20
2018-07-16T01:30:53.961Z,24.22
2018-07-16T01:31:25.575Z,24.22
2018-07-16T01:33:17.157Z,24.11
2018-07-16T01:33:48.454Z,24.08
2018-07-16T01:34:19.652Z,24.04
2018-07-16T01:34:50.829Z,24.01
2018-07-16T01:35:22.037Z,23.99
2018-07-16T01:35:53.270Z,24.00
2018-07-16T01:36:24.468Z,24.00
2018-07-16T01:36:55.696Z,24.01
2018-07-16T01:37:26.870Z,24.02
2018-07-16T01:37:58.059Z,24.01
2018-07-16T01:38:29.286Z,24.02
2018-07-16T01:39:00.476Z,24.01
2018-07-16T01:39:32.882Z,24.00
2018-07-16T01:40:04.069Z,24.00
2018-07-16T01:40:35.303Z,23.99
2018-07-16T01:41:06.589Z,23.98
2018-07-16T01:41:37.761Z,24.00
2018-07-16T01:42:08.936Z,24.01
2018-07-16T01:42:40.234Z,24.03
2018-07-16T01:43:11.492Z,24.03
2018-07-16T01:43:44.136Z,24.04
2018-07-16T01:44:15.311Z,24.06
2018-07-16T01:44:46.520Z,24.07
2018-07-16T01:45:18.321Z,24.09
2018-07-16T01:45:49.536Z,24.10
2018-07-16T01:46:20.737Z,24.12
2018-07-16T01:46:51.909Z,24.13
2018-07-16T01:47:23.102Z,24.14
2018-07-16T01:47:54.308Z,24.13
2018-07-16T01:48:25.485Z,23.39
2018-07-16T01:48:56.748Z,24.10
2018-07-16T01:49:28.204Z,24.07
2018-07-16T01:49:59.381Z,24.06
2018-07-16T01:50:31.227Z,24.03
2018-07-16T01:51:02.453Z,24.02
2018-07-16T01:51:33.630Z,23.98
2018-07-16T01:52:04.846Z,23.97
2018-07-16T01:52:36.073Z,23.96
2018-07-16T01:53:07.254Z,23.95
2018-07-16T01:53:38.448Z,23.92
2018-07-16T01:54:09.668Z,23.89
2018-07-16T01:54:40.912Z,23.82
2018-07-16T01:55:12.705Z,23.80
2018-07-16T01:55:43.924Z,23.79
2018-07-16T01:56:15.161Z,23.78
2018-07-16T01:56:46.342Z,23.75
2018-07-16T01:57:17.572Z,23.74
2018-07-16T01:57:48.745Z,23.75
2018-07-16T01:58:19.921Z,23.75
2018-07-16T01:58:51.101Z,23.76
2018-07-16T01:59:22.325Z,23.77
2018-07-16T01:59:53.506Z,23.77
2018-07-16T02:00:24.729Z,23.77
2018-07-16T02:00:55.965Z,23.77
2018-07-16T02:01:27.158Z,23.77
2018-07-16T02:01:58.391Z,23.79
2018-07-16T02:02:29.616Z,23.79
2018-07-16T02:03:00.837Z,23.81
2018-07-16T02:03:32.012Z,23.81
2018-07-16T02:04:03.233Z,23.84
2018-07-16T02:04:34.408Z,23.86
2018-07-16T02:05:05.595Z,23.85
2018-07-16T02:05:37.382Z,23.83
2018-07-16T02:06:09.468Z,23.80
2018-07-16T02:06:40.646Z,23.79
2018-07-16T02:07:11.821Z,23.77
2018-07-16T02:07:43.001Z,23.76
2018-07-16T02:08:14.192Z,23.77
2018-07-16T02:08:45.364Z,23.76
2018-07-16T02:09:17.296Z,23.75
2018-07-16T02:09:48.681Z,23.74
2018-07-16T02:10:19.896Z,23.74
2018-07-16T02:10:51.118Z,23.72
2018-07-16T02:11:22.384Z,23.72
2018-07-16T02:11:53.548Z,23.73
2018-07-16T02:12:24.798Z,23.74
2018-07-16T02:12:56.033Z,23.72
2018-07-16T02:13:27.219Z,23.74
2018-07-16T02:13:59.169Z,23.74
2018-07-16T02:14:30.356Z,23.73
2018-07-16T02:15:02.193Z,23.71
2018-07-16T02:15:33.372Z,23.72
2018-07-16T02:16:04.553Z,23.72
2018-07-16T02:16:35.774Z,23.70
2018-07-16T02:17:06.963Z,23.71
2018-07-16T02:17:38.198Z,23.72
2018-07-16T02:18:09.437Z,23.73
2018-07-16T02:18:40.680Z,23.73
2018-07-16T02:19:11.860Z,23.71
2018-07-16T02:19:43.041Z,23.71
2018-07-16T02:20:14.249Z,23.71
2018-07-16T02:20:46.239Z,23.72
2018-07-16T02:21:18.569Z,23.73
2018-07-16T02:21:49.785Z,23.75
2018-07-16T02:22:20.996Z,23.75
2018-07-16T02:22:52.202Z,23.77
2018-07-16T02:23:23.468Z,23.79
2018-07-16T02:23:54.684Z,23.79
2018-07-16T02:24:25.985Z,23.80
2018-07-16T02:24:57.832Z,23.83
2018-07-16T02:25:29.018Z,23.84
2018-07-16T02:26:00.241Z,23.84
2018-07-16T02:26:31.461Z,23.84
2018-07-16T02:27:02.648Z,23.81
2018-07-16T02:27:34.972Z,23.81
2018-07-16T02:28:06.245Z,23.81
2018-07-16T02:28:37.433Z,23.80
2018-07-16T02:29:08.669Z,23.77
2018-07-16T02:29:39.921Z,23.74
2018-07-16T02:30:11.331Z,23.71
2018-07-16T02:30:42.614Z,23.69
2018-07-16T02:31:13.802Z,23.67
2018-07-16T02:31:45.075Z,23.65
2018-07-16T02:32:16.253Z,23.64
2018-07-16T02:32:47.428Z,23.63
2018-07-16T02:33:18.605Z,23.61
2018-07-16T02:33:49.815Z,23.58
2018-07-16T02:34:21.049Z,23.58
2018-07-16T02:34:52.308Z,23.56
2018-07-16T02:35:24.266Z,23.56
2018-07-16T02:35:55.440Z,23.54
2018-07-16T02:36:26.627Z,23.53
2018-07-16T02:36:57.846Z,23.53
2018-07-16T02:37:29.073Z,23.52
2018-07-16T02:38:00.326Z,23.52
2018-07-16T02:38:31.516Z,23.53
2018-07-16T02:39:02.745Z,23.53
2018-07-16T02:39:33.933Z,23.53
2018-07-16T02:40:05.116Z,23.55
2018-07-16T02:40:36.352Z,23.57
2018-07-16T02:41:07.537Z,23.56
2018-07-16T02:41:38.758Z,23.55
2018-07-16T02:42:10.589Z,23.54
2018-07-16T02:42:41.781Z,23.54
2018-07-16T02:43:13.006Z,23.54
2018-07-16T02:43:44.240Z,23.54
2018-07-16T02:44:15.489Z,23.53
2018-07-16T02:44:46.666Z,23.54
2018-07-16T02:45:17.845Z,23.56
2018-07-16T02:45:49.020Z,23.59
2018-07-16T02:46:20.185Z,23.58
2018-07-16T02:46:51.369Z,23.58
2018-07-16T02:47:22.552Z,23.61
2018-07-16T02:47:53.738Z,23.61
2018-07-16T02:48:25.004Z,23.62
2018-07-16T02:48:56.180Z,23.66
2018-07-16T02:49:27.380Z,23.65
2018-07-16T02:49:58.548Z,23.63
2018-07-16T02:50:29.782Z,23.61
2018-07-16T02:51:00.956Z,23.59
2018-07-16T02:51:32.148Z,23.55
2018-07-16T02:52:03.316Z,23.53
2018-07-16T02:52:34.546Z,23.53
2018-07-16T02:53:05.774Z,23.52
2018-07-16T02:53:37.052Z,23.51
2018-07-16T02:54:08.253Z,23.50
2018-07-16T02:54:39.477Z,23.47
2018-07-16T02:55:10.710Z,23.46
2018-07-16T02:55:41.913Z,23.46
2018-07-16T02:56:13.152Z,23.47
2018-07-16T02:56:44.458Z,23.46
2018-07-16T02:57:15.644Z,23.47
2018-07-16T02:57:46.871Z,23.47
2018-07-16T02:58:18.101Z,23.46
2018-07-16T02:58:49.328Z,23.44
2018-07-16T02:59:20.501Z,23.48
2018-07-16T02:59:51.681Z,23.50
2018-07-16T03:00:22.918Z,23.49
2018-07-16T03:00:54.768Z,23.50
2018-07-16T03:01:25.989Z,23.52
2018-07-16T03:01:57.162Z,23.54
2018-07-16T03:02:28.428Z,23.54
2018-07-16T03:02:59.587Z,23.56
2018-07-16T03:03:30.775Z,23.57
2018-07-16T03:04:01.966Z,23.58
2018-07-16T03:04:33.154Z,23.59
2018-07-16T03:05:04.376Z,23.62
2018-07-16T03:05:35.558Z,23.65
2018-07-16T03:06:06.792Z,23.69
2018-07-16T03:06:38.025Z,23.71
2018-07-16T03:07:09.261Z,23.71
2018-07-16T03:07:40.443Z,23.68
2018-07-16T03:08:11.681Z,23.69
2018-07-16T03:08:42.865Z,23.69
2018-07-16T03:09:14.040Z,23.62
2018-07-16T03:09:45.204Z,23.58
2018-07-16T03:10:16.415Z,23.59
2018-07-16T03:10:47.629Z,23.59
2018-07-16T03:11:18.805Z,23.58
2018-07-16T03:11:49.982Z,23.60
2018-07-16T03:12:21.205Z,23.62
2018-07-16T03:12:52.389Z,23.62
2018-07-16T03:13:23.559Z,23.65
2018-07-16T03:13:54.742Z,23.67
2018-07-16T03:14:25.964Z,23.67
2018-07-16T03:14:57.168Z,23.69
2018-07-16T03:15:28.383Z,23.72
2018-07-16T03:15:59.563Z,23.71
2018-07-16T03:16:30.741Z,23.72
2018-07-16T03:17:01.912Z,23.71
2018-07-16T03:17:33.081Z,23.70
2018-07-16T03:18:04.414Z,23.71
2018-07-16T03:18:35.557Z,23.68
2018-07-16T03:19:06.806Z,23.64
2018-07-16T03:19:39.009Z,23.61
2018-07-16T03:20:10.191Z,23.58
2018-07-16T03:20:41.378Z,23.56
2018-07-16T03:21:12.553Z,23.62
2018-07-16T03:21:43.825Z,23.71
2018-07-16T03:22:15.064Z,23.80
2018-07-16T03:22:46.293Z,23.89
2018-07-16T03:23:17.482Z,23.94
2018-07-16T03:23:48.708Z,24.00
2018-07-16T03:24:19.916Z,24.07
2018-07-16T03:24:51.712Z,24.13
2018-07-16T03:25:22.988Z,24.18
2018-07-16T03:25:54.222Z,24.21
2018-07-16T03:26:25.926Z,24.23
2018-07-16T03:26:57.145Z,24.28
2018-07-16T03:27:28.329Z,24.30
2018-07-16T03:27:59.513Z,24.37
2018-07-16T03:28:30.781Z,24.44
2018-07-16T03:29:02.025Z,24.50
2018-07-16T03:29:33.263Z,24.57
2018-07-16T03:30:05.129Z,24.60
2018-07-16T03:30:36.326Z,24.60
2018-07-16T03:31:07.496Z,24.59
2018-07-16T03:31:38.692Z,24.58
2018-07-16T03:32:10.688Z,24.60
2018-07-16T03:32:41.909Z,24.67
2018-07-16T03:33:13.103Z,24.72
2018-07-16T03:33:44.283Z,24.72
2018-07-16T03:34:16.603Z,24.72
2018-07-16T03:34:47.839Z,24.76
2018-07-16T03:35:19.021Z,24.83
2018-07-16T03:35:50.200Z,24.85
2018-07-16T03:36:21.376Z,24.88
2018-07-16T03:36:52.613Z,24.87
2018-07-16T03:37:23.897Z,24.88
2018-07-16T03:37:55.084Z,24.90
2018-07-16T03:38:26.260Z,24.90
2018-07-16T03:38:57.492Z,24.94
2018-07-16T03:39:28.701Z,25.06
2018-07-16T03:39:59.946Z,25.14
2018-07-16T03:40:31.189Z,25.21
2018-07-16T03:41:02.372Z,25.22
2018-07-16T03:41:33.554Z,25.22
2018-07-16T03:42:04.744Z,25.24
2018-07-16T03:42:35.933Z,25.26
2018-07-16T03:43:07.167Z,25.31
2018-07-16T03:43:38.351Z,25.37
2018-07-16T03:44:09.521Z,25.38
2018-07-16T03:44:40.765Z,25.43
2018-07-16T03:45:12.070Z,25.43
2018-07-16T03:45:43.321Z,25.44
2018-07-16T03:46:14.562Z,25.46
2018-07-16T03:46:45.797Z,25.56
2018-07-16T03:47:17.098Z,25.63
2018-07-16T03:47:48.334Z,25.67
2018-07-16T03:49:10.606Z,25.76
2018-07-16T03:49:41.861Z,25.76
2018-07-16T03:50:13.155Z,25.82
2018-07-16T03:50:44.336Z,25.78
2018-07-16T03:51:15.626Z,25.87
2018-07-16T03:51:46.811Z,25.95
2018-07-16T03:52:18.041Z,25.96
2018-07-16T03:52:49.236Z,25.92
2018-07-16T03:53:20.423Z,25.85
2018-07-16T03:53:51.620Z,25.94
2018-07-16T03:54:22.805Z,26.04
2018-07-16T03:54:54.004Z,26.11
2018-07-16T03:55:25.177Z,26.16
2018-07-16T03:55:56.459Z,26.14
2018-07-16T03:56:27.698Z,26.15
2018-07-16T03:56:58.880Z,26.13
2018-07-16T03:57:30.107Z,26.19
2018-07-16T03:58:01.346Z,26.15
2018-07-16T03:58:32.528Z,26.10
2018-07-16T03:59:03.719Z,26.01
2018-07-16T03:59:34.975Z,25.99
2018-07-16T04:00:06.200Z,25.95
2018-07-16T04:00:37.429Z,25.89
2018-07-16T04:01:08.665Z,25.85
2018-07-16T04:01:40.137Z,25.89
2018-07-16T04:02:11.245Z,25.93
2018-07-16T04:02:42.424Z,25.93
2018-07-16T04:03:13.612Z,25.85
2018-07-16T04:03:44.855Z,25.86
2018-07-16T04:04:16.043Z,25.74
2018-07-16T04:04:47.335Z,25.63
2018-07-16T04:05:18.540Z,25.60
2018-07-16T04:05:49.716Z,25.45
2018-07-16T04:06:20.884Z,25.36
2018-07-16T04:06:52.169Z,25.23
2018-07-16T04:07:23.356Z,25.05
2018-07-16T04:07:54.628Z,24.86
2018-07-16T04:08:25.887Z,24.67
2018-07-16T04:08:57.152Z,24.43
2018-07-16T04:09:28.337Z,24.32
2018-07-16T04:09:59.598Z,24.22
2018-07-16T04:10:30.772Z,24.16
2018-07-16T04:11:02.030Z,24.17
2018-07-16T04:11:33.728Z,24.26
2018-07-16T04:12:04.910Z,24.39
2018-07-16T04:12:36.141Z,24.55
2018-07-16T04:13:07.429Z,24.71
2018-07-16T04:13:38.658Z,24.86
2018-07-16T04:14:09.848Z,25.05
2018-07-16T04:14:41.068Z,25.26
2018-07-16T04:15:12.961Z,25.46
2018-07-16T04:15:44.208Z,25.58
2018-07-16T04:16:15.395Z,25.65
2018-07-16T04:16:46.657Z,25.72
2018-07-16T04:17:17.905Z,25.80
2018-07-16T04:17:49.093Z,25.74
2018-07-16T04:18:20.320Z,25.59
2018-07-16T04:18:51.562Z,25.46
2018-07-16T04:19:23.777Z,25.28
2018-07-16T04:19:54.973Z,25.08
2018-07-16T04:20:26.159Z,24.96
2018-07-16T04:20:57.388Z,24.90
2018-07-16T04:21:28.580Z,24.91
2018-07-16T04:21:59.756Z,24.93
2018-07-16T04:22:31.189Z,25.00
2018-07-16T04:23:02.375Z,25.18
2018-07-16T04:23:33.561Z,25.27
2018-07-16T04:24:04.729Z,25.38
2018-07-16T04:24:36.049Z,25.49
2018-07-16T04:25:07.240Z,25.62
2018-07-16T04:25:38.414Z,25.72
2018-07-16T04:26:09.593Z,25.72
2018-07-16T04:26:40.788Z,25.67
2018-07-16T04:27:12.049Z,25.59
2018-07-16T04:27:43.279Z,25.46
2018-07-16T04:28:14.457Z,25.37
2018-07-16T04:28:45.718Z,25.31
2018-07-16T04:29:16.957Z,25.25
2018-07-16T04:29:49.215Z,25.29
2018-07-16T04:30:20.384Z,25.36
2018-07-16T04:30:51.578Z,25.44
2018-07-16T04:31:22.800Z,25.44
2018-07-16T04:31:53.984Z,25.43
2018-07-16T04:32:25.170Z,25.40
2018-07-16T04:32:56.407Z,25.27
2018-07-16T04:33:27.597Z,25.18
2018-07-16T04:33:58.780Z,25.12
2018-07-16T04:34:30.660Z,25.08
2018-07-16T04:35:01.897Z,25.09
2018-07-16T04:35:33.086Z,25.09
2018-07-16T04:36:04.309Z,25.13
2018-07-16T04:36:35.542Z,25.22
2018-07-16T04:37:06.724Z,25.30
2018-07-16T04:37:37.980Z,25.49
2018-07-16T04:38:09.160Z,25.69
2018-07-16T04:38:40.397Z,25.88
2018-07-16T04:39:11.626Z,25.99
2018-07-16T04:39:42.826Z,26.12
2018-07-16T04:40:14.052Z,26.15
2018-07-16T04:40:45.281Z,26.11
2018-07-16T04:41:16.473Z,26.08
2018-07-16T04:41:47.653Z,26.02
2018-07-16T04:42:18.840Z,26.04
2018-07-16T04:42:51.151Z,25.98
2018-07-16T04:43:22.393Z,25.75
2018-07-16T04:43:53.582Z,25.64
2018-07-16T04:44:24.827Z,25.49
2018-07-16T04:44:56.027Z,25.35
2018-07-16T04:45:27.225Z,25.29
2018-07-16T04:45:58.402Z,25.18
2018-07-16T04:46:29.572Z,25.10
2018-07-16T04:47:00.767Z,24.93
2018-07-16T04:47:31.951Z,24.82
2018-07-16T04:48:03.189Z,24.81
2018-07-16T04:48:34.401Z,24.81
2018-07-16T04:49:05.593Z,24.82
2018-07-16T04:49:36.772Z,24.83
2018-07-16T04:50:07.956Z,24.83
2018-07-16T04:50:39.182Z,24.82
2018-07-16T04:51:10.368Z,24.86
2018-07-16T04:51:41.557Z,24.93
2018-07-16T04:52:12.793Z,24.98
2018-07-16T04:52:43.972Z,25.03
2018-07-16T04:53:15.153Z,25.21
2018-07-16T04:53:46.334Z,25.35
2018-07-16T04:54:18.244Z,25.41
2018-07-16T04:54:49.426Z,25.45
2018-07-16T04:55:20.653Z,25.45
2018-07-16T04:55:51.842Z,25.42
2018-07-16T04:56:23.017Z,25.35
2018-07-16T04:56:55.042Z,25.34
2018-07-16T04:57:26.235Z,25.39
2018-07-16T04:57:57.420Z,25.55
2018-07-16T04:58:28.597Z,25.79
2018-07-16T04:58:59.772Z,25.99
2018-07-16T04:59:31.045Z,26.26
2018-07-16T05:00:02.288Z,26.55
2018-07-16T05:00:33.525Z,26.90
2018-07-16T05:01:05.401Z,27.17
2018-07-16T05:01:36.590Z,27.45
2018-07-16T05:02:07.837Z,27.59
2018-07-16T05:02:39.075Z,27.73
2018-07-16T05:03:10.349Z,27.82
2018-07-16T05:03:41.589Z,27.82
2018-07-16T05:04:12.781Z,27.89
2018-07-16T05:04:43.971Z,28.03
2018-07-16T05:05:15.152Z,28.20
2018-07-16T05:05:46.405Z,28.31
2018-07-16T05:06:18.830Z,28.50
2018-07-16T05:06:50.013Z,28.63
2018-07-16T05:07:21.250Z,28.87
2018-07-16T05:07:52.412Z,29.03
2018-07-16T05:08:23.640Z,29.20
2018-07-16T05:08:54.860Z,29.15
2018-07-16T05:09:26.041Z,29.15
2018-07-16T05:09:57.236Z,29.29
2018-07-16T05:10:28.555Z,29.34
2018-07-16T05:10:59.736Z,29.41
2018-07-16T05:11:31.515Z,29.40
2018-07-16T05:12:02.785Z,29.35
2018-07-16T05:12:34.021Z,29.14
2018-07-16T05:13:05.209Z,29.18
2018-07-16T05:13:36.389Z,29.27
2018-07-16T05:14:07.777Z,29.32
2018-07-16T05:14:39.033Z,29.39
2018-07-16T05:15:10.275Z,29.36
2018-07-16T05:15:41.553Z,29.27
2018-07-16T05:16:12.743Z,29.34
2018-07-16T05:16:43.984Z,29.36
2018-07-16T05:17:15.308Z,29.35
2018-07-16T05:17:47.248Z,29.55
2018-07-16T05:18:18.510Z,29.73
2018-07-16T05:18:49.653Z,29.61
2018-07-16T05:19:20.877Z,29.59
2018-07-16T05:19:52.128Z,29.66
2018-07-16T05:20:23.321Z,29.73
2018-07-16T05:20:54.540Z,29.84
2018-07-16T05:21:25.708Z,29.89
2018-07-16T05:21:56.872Z,29.80
2018-07-16T05:22:28.045Z,29.77
2018-07-16T05:22:59.274Z,29.78
2018-07-16T05:23:30.460Z,29.87
2018-07-16T05:24:01.641Z,29.90
2018-07-16T05:24:32.907Z,29.91
2018-07-16T05:25:04.087Z,29.84
2018-07-16T05:25:35.252Z,29.81
2018-07-16T05:26:06.460Z,29.81
2018-07-16T05:26:37.689Z,30.00
2018-07-16T05:27:08.921Z,30.14
2018-07-16T05:27:40.110Z,30.14
2018-07-16T05:28:11.312Z,30.19
2018-07-16T05:28:42.488Z,30.18
2018-07-16T05:29:13.700Z,30.10
2018-07-16T05:29:44.931Z,30.04
2018-07-16T05:30:16.120Z,30.02
2018-07-16T05:30:47.308Z,30.15
2018-07-16T05:31:18.492Z,30.16
2018-07-16T05:31:50.063Z,30.25
2018-07-16T05:32:21.322Z,30.31
2018-07-16T05:32:52.438Z,30.14
2018-07-16T05:33:23.613Z,30.04
2018-07-16T05:33:54.788Z,29.93
2018-07-16T05:34:25.970Z,29.85
2018-07-16T05:34:57.184Z,29.60
2018-07-16T05:35:28.400Z,29.54
2018-07-16T05:35:59.576Z,29.40
2018-07-16T05:36:30.845Z,29.25
2018-07-16T05:37:02.076Z,29.15
2018-07-16T05:37:33.315Z,29.16
2018-07-16T05:38:04.532Z,29.26
2018-07-16T05:38:35.749Z,29.22
2018-07-16T05:39:07.069Z,29.09
2018-07-16T05:39:38.282Z,29.01
2018-07-16T05:40:09.505Z,28.97
2018-07-16T05:40:40.703Z,28.86
2018-07-16T05:41:11.884Z,28.77
2018-07-16T05:41:43.123Z,28.71
2018-07-16T05:42:14.331Z,28.67
2018-07-16T05:42:45.588Z,28.73
2018-07-16T05:43:16.761Z,28.75
2018-07-16T05:43:47.976Z,28.81
2018-07-16T05:44:19.154Z,28.91
2018-07-16T05:44:50.339Z,28.95
2018-07-16T05:45:21.520Z,29.03
2018-07-16T05:45:52.743Z,29.04
2018-07-16T05:46:23.927Z,28.97
2018-07-16T05:46:55.154Z,28.83
2018-07-16T05:47:26.336Z,28.72
2018-07-16T05:47:57.557Z,28.51
2018-07-16T05:48:28.751Z,28.31
2018-07-16T05:49:00.026Z,28.28
2018-07-16T05:49:31.253Z,28.21
2018-07-16T05:50:02.426Z,28.11
2018-07-16T05:50:33.607Z,28.09
2018-07-16T05:51:04.788Z,28.04
2018-07-16T05:51:40.772Z,28.01
2018-07-16T05:52:12.015Z,27.95
2018-07-16T05:52:43.204Z,27.87
2018-07-16T05:53:14.379Z,27.84
2018-07-16T05:53:45.587Z,27.97
2018-07-16T05:54:16.797Z,27.90
2018-07-16T05:54:48.005Z,27.96
2018-07-16T05:55:19.232Z,27.91
2018-07-16T05:55:50.642Z,27.81
2018-07-16T05:56:21.869Z,27.82
2018-07-16T05:56:53.055Z,27.77
2018-07-16T05:57:24.322Z,27.80
2018-07-16T05:57:55.562Z,28.00
2018-07-16T05:58:26.814Z,28.04
2018-07-16T05:58:58.101Z,28.15
2018-07-16T05:59:29.353Z,28.15
2018-07-16T06:00:00.621Z,28.08
2018-07-16T06:00:31.812Z,27.91
2018-07-16T06:01:02.993Z,27.80
2018-07-16T06:01:35.555Z,27.82
2018-07-16T06:02:06.750Z,27.80
2018-07-16T06:02:37.958Z,27.80
2018-07-16T06:03:13.206Z,27.89
2018-07-16T06:03:44.442Z,27.88
2018-07-16T06:04:15.630Z,27.96
2018-07-16T06:04:47.086Z,28.01
2018-07-16T06:05:18.464Z,28.12
2018-07-16T06:05:49.664Z,28.16
2018-07-16T06:06:20.848Z,28.22
2018-07-16T06:06:52.047Z,28.34
2018-07-16T06:07:23.245Z,28.44
2018-07-16T06:07:54.440Z,28.50
2018-07-16T06:08:25.713Z,28.51
2018-07-16T06:08:56.944Z,28.55
2018-07-16T06:09:28.179Z,28.51
2018-07-16T06:09:59.385Z,28.49
2018-07-16T06:10:30.594Z,28.51
2018-07-16T06:11:01.818Z,28.36
2018-07-16T06:11:33.025Z,28.16
2018-07-16T06:12:04.218Z,28.13
2018-07-16T06:12:35.394Z,28.14
2018-07-16T06:13:06.625Z,28.16
2018-07-16T06:13:37.909Z,28.29
2018-07-16T06:14:09.099Z,28.17
2018-07-16T06:14:40.291Z,28.05
2018-07-16T06:15:11.469Z,27.86
2018-07-16T06:15:42.727Z,27.90
2018-07-16T06:16:13.904Z,28.01
2018-07-16T06:16:45.147Z,28.16
2018-07-16T06:17:16.368Z,28.26
2018-07-16T06:17:47.585Z,28.29
2018-07-16T06:18:18.825Z,28.31
2018-07-16T06:18:51.516Z,28.28
2018-07-16T06:19:22.771Z,28.27
2018-07-16T06:19:53.943Z,28.28
2018-07-16T06:20:25.128Z,28.39
2018-07-16T06:20:56.357Z,28.46
2018-07-16T06:21:27.544Z,27.24
2018-07-16T06:21:59.411Z,28.41
2018-07-16T06:22:30.634Z,28.19
2018-07-16T06:23:01.847Z,28.11
2018-07-16T06:23:33.030Z,28.07
2018-07-16T06:24:04.333Z,28.04
2018-07-16T06:24:35.477Z,28.01
2018-07-16T06:25:06.694Z,28.03
2018-07-16T06:25:37.886Z,28.10
2018-07-16T06:26:09.057Z,28.20
2018-07-16T06:26:40.314Z,28.27
2018-07-16T06:27:11.605Z,28.26
2018-07-16T06:27:42.784Z,28.26
2018-07-16T06:28:13.968Z,28.34
2018-07-16T06:28:45.563Z,28.52
2018-07-16T06:29:16.782Z,28.60
2018-07-16T06:29:47.955Z,28.58
2018-07-16T06:30:19.129Z,28.51
2018-07-16T06:30:50.317Z,28.48
2018-07-16T06:31:21.516Z,28.56
2018-07-16T06:31:52.781Z,28.61
2018-07-16T06:32:23.990Z,28.61
2018-07-16T06:32:55.175Z,28.71
2018-07-16T06:33:26.517Z,25.88
2018-07-16T06:33:57.745Z,28.80
2018-07-16T06:34:28.978Z,28.87
2018-07-16T06:35:00.160Z,28.86
2018-07-16T06:35:31.340Z,28.76
2018-07-16T06:36:02.535Z,28.78
2018-07-16T06:36:33.754Z,28.75
2018-07-16T06:37:04.982Z,28.74
2018-07-16T06:37:36.386Z,28.63
2018-07-16T06:38:07.632Z,28.50
2018-07-16T06:38:38.871Z,28.47
2018-07-16T06:39:13.599Z,28.46
2018-07-16T06:39:44.923Z,28.50
2018-07-16T06:40:16.228Z,28.39
2018-07-16T06:40:49.098Z,28.29
2018-07-16T06:41:20.402Z,28.06
2018-07-16T06:41:51.445Z,27.92
2018-07-16T06:42:22.677Z,27.95
2018-07-16T06:42:53.878Z,27.99
2018-07-16T06:43:25.091Z,28.00
2018-07-16T06:43:56.310Z,27.98
2018-07-16T06:44:27.493Z,27.99
2018-07-16T06:44:58.741Z,27.97
2018-07-16T06:45:29.943Z,28.02
2018-07-16T06:46:01.129Z,28.08
2018-07-16T06:46:32.496Z,28.13
2018-07-16T06:47:03.686Z,28.13